Flight Track Log - Related Links

Times and Time Zones

All times are in EDT time to prevent confusion due to time zone crossing. See the DAL268 flight status page for this flight to view local times or setup timezone preferences in your user account.


Time Position Orientation Groundspeed Altitude Reporting Facility
EDT Latitude Longitude Course Direction KTS MPH feet Rate Location/Type
Sun 02:27:05 PM 37.6160 -122.3810 North  Level FlightAware ADS-B
Sun 02:29:00 PM 37.7922 -122.1911 38° Northeast  Level FlightAware Approximate
Sun 02:30:00 PM 37.8885 -122.0948 38° Northeast  Level FlightAware Approximate
Sun 02:35:53 PM 37.6060 -122.3820 38° Northeast  Level FlightAware ADS-B
Sun 02:36:00 PM 37.8118 -122.1716 38° Northeast  Level FlightAware Approximate
Sun 02:37:55 PM 37.6110 -122.3780 31° Northeast 94 108  Level FlightAware ADS-B
Sun 02:38:17 PM 37.6230 -122.3700 28° Northeast 159 183 200 1,059 Climbing FlightAware ADS-B
Sun 02:38:29 PM 37.6310 -122.3640 31° Northeast 165 190 600 2,250 Climbing FlightAware ADS-B
Sun 02:38:33 PM 37.6338 -122.3620 29° Northeast 168 193 800 2,182 Climbing FlightAware ADS-B
Sun 02:38:40 PM 37.6379 -122.3570 44° Northeast 172 198 1,000 2,000 Climbing FlightAware ADS-B
Sun 02:38:48 PM 37.6421 -122.3520 43° Northeast 183 211 1,300 1,826 Climbing FlightAware ADS-B
Sun 02:39:03 PM 37.6517 -122.3390 47° Northeast 200 230 1,700 1,800 Climbing FlightAware ADS-B
Sun 02:39:18 PM 37.6625 -122.3260 44° Northeast 219 252 2,200 2,200 Climbing FlightAware ADS-B
Sun 02:39:33 PM 37.6738 -122.3110 46° Northeast 235 270 2,800 2,308 Climbing FlightAware ADS-B
Sun 02:39:44 PM 37.6819 -122.3010 44° Northeast 243 280 3,200 2,077 Climbing FlightAware ADS-B
Sun 02:39:59 PM 37.6947 -122.2850 45° Northeast 257 296 3,700 2,063 Climbing FlightAware ADS-B
Sun 02:40:16 PM 37.7088 -122.2660 47° Northeast 275 316 4,300 2,690 Climbing FlightAware ADS-B
Sun 02:40:28 PM 37.7196 -122.2520 46° Northeast 277 319 5,000 3,273 Climbing FlightAware ADS-B
Sun 02:40:49 PM 37.7412 -122.2290 40° Northeast 281 323 6,100 3,000 Climbing FlightAware ADS-B
Sun 02:41:08 PM 37.7607 -122.2100 38° Northeast 285 328 7,000 2,842 Climbing FlightAware ADS-B
Sun 02:41:27 PM 37.7810 -122.1900 38° Northeast 294 338 7,900 2,833 Climbing FlightAware ADS-B
Sun 02:41:44 PM 37.7997 -122.1720 37° Northeast 297 342 8,700 2,727 Climbing FlightAware ADS-B
Sun 02:42:00 PM 37.8169 -122.1560 36° Northeast 303 349 9,400 2,348 Climbing FlightAware ADS-B
Sun 02:42:30 PM 37.8515 -122.1230 37° Northeast 320 368 10,500 1,600 Climbing FlightAware ADS-B
Sun 02:43:00 PM 37.8898 -122.0870 37° Northeast 355 409 11,000 1,180 Climbing FlightAware ADS-B
Sun 02:43:31 PM 37.9320 -122.0460 37° Northeast 384 442 11,700 1,770 Climbing FlightAware ADS-B
Sun 02:44:01 PM 37.9761 -122.0040 37° Northeast 398 458 12,800 2,226 Climbing FlightAware ADS-B
Sun 02:44:33 PM 38.0228 -121.9590 37° Northeast 405 466 14,000 2,219 Climbing FlightAware ADS-B
Sun 02:45:14 PM 38.0847 -121.9000 37° Northeast 417 480 15,500 2,143 Climbing FlightAware ADS-B
Sun 02:45:57 PM 38.1480 -121.8390 37° Northeast 427 491 17,000 2,051 Climbing FlightAware ADS-B
Sun 02:46:33 PM 38.2060 -121.7820 38° Northeast 438 504 18,200 1,579 Climbing FlightAware ADS-B
Sun 02:47:13 PM 38.2743 -121.7160 37° Northeast 450 518 19,000 686 Climbing FlightAware ADS-B
Sun 02:47:43 PM 38.3210 -121.6710 37° Northeast 452 520 19,000  Level FlightAware ADS-B
Sun 02:48:15 PM 38.3770 -121.6170 37° Northeast 450 518 19,000  Level FlightAware ADS-B
Sun 02:48:51 PM 38.4320 -121.5600 39° Northeast 447 514 19,000  Level FlightAware ADS-B
Sun 02:49:25 PM 38.4810 -121.4880 49° Northeast 445 512 19,000 882 Level FlightAware ADS-B
Sun 02:49:59 PM 38.5180 -121.4180 56° Northeast 446 513 20,000 1,909 Climbing FlightAware ADS-B
Sun 02:50:31 PM 38.5520 -121.3460 59° Northeast 451 519 21,100 2,000 Climbing FlightAware ADS-B
Sun 02:51:11 PM 38.5996 -121.2480 58° Northeast 449 517 22,400 1,792 Climbing FlightAware ADS-B
Sun 02:51:48 PM 38.6360 -121.1740 58° Northeast 466 536 23,400 1,739 Climbing FlightAware ADS-B
Sun 02:52:20 PM 38.6760 -121.0940 57° Northeast 473 544 24,400 1,791 Climbing FlightAware ADS-B
Sun 02:52:55 PM 38.7170 -121.0110 58° Northeast 477 549 25,400 1,606 Climbing FlightAware ADS-B
Sun 02:53:31 PM 38.7600 -120.9230 58° Northeast 483 556 26,300 1,565 Climbing FlightAware ADS-B
Sun 02:54:04 PM 38.7990 -120.8440 58° Northeast 486 559 27,200 1,583 Climbing FlightAware ADS-B
Sun 02:54:43 PM 38.8460 -120.7450 59° Northeast 489 563 28,200 1,437 Climbing FlightAware ADS-B
Sun 02:55:15 PM 38.8840 -120.6670 58° Northeast 494 568 28,900 1,200 Climbing FlightAware ADS-B
Sun 02:55:53 PM 38.9290 -120.5730 58° Northeast 499 574 29,600 1,304 Climbing FlightAware ADS-B
Sun 02:56:24 PM 38.9680 -120.4900 59° Northeast 501 577 30,400 1,588 Climbing FlightAware ADS-B
Sun 02:57:01 PM 39.0120 -120.3960 59° Northeast 499 574 31,400 1,652 Climbing FlightAware ADS-B
Sun 02:57:33 PM 39.0520 -120.3130 58° Northeast 498 573 32,300 1,280 Climbing FlightAware ADS-B
Sun 02:58:16 PM 39.1030 -120.2060 58° Northeast 498 573 33,000 532 Climbing FlightAware ADS-B
Sun 02:58:52 PM 39.1450 -120.1150 59° Northeast 498 573 33,000  Level FlightAware ADS-B
Sun 02:59:28 PM 39.1890 -120.0220 59° Northeast 501 577 33,000 387 Level FlightAware ADS-B
Sun 02:59:54 PM 39.2190 -119.9570 59° Northeast 500 575 33,400 139 Climbing FlightAware ADS-B
Sun 03:02:21 PM 39.3680 -119.6360 59° Northeast 500 575 33,400  Level FlightAware ADS-B
Sun 03:03:22 PM 39.4290 -119.5030 59° Northeast 500 575 33,400 2,097 Level FlightAware ADS-B
Sun 03:04:04 PM 39.4980 -119.3530 59° Northeast 497 572 37,000 2,959 Climbing FlightAware ADS-B
Sun 03:04:35 PM 39.5350 -119.2720 59° Northeast 498 573 37,000  Level FlightAware ADS-B
Sun 03:05:18 PM 39.5990 -119.1330 59° Northeast 501 577 37,000  Level FlightAware ADS-B
Sun 03:05:50 PM 39.6370 -119.0490 60° Northeast 502 578 37,000  Level FlightAware ADS-B
Sun 03:06:23 PM 39.6600 -118.9970 60° Northeast 503 579 37,000  Level FlightAware ADS-B
Sun 03:06:56 PM 39.7130 -118.8800 59° Northeast 505 581 37,000  Level FlightAware ADS-B
Sun 03:07:32 PM 39.7570 -118.7830 59° Northeast 505 581 37,000  Level FlightAware ADS-B
Sun 03:08:04 PM 39.7940 -118.7010 60° Northeast 505 581 37,000  Level FlightAware ADS-B
Sun 03:08:44 PM 39.8410 -118.5950 60° Northeast 506 582 37,000  Level FlightAware ADS-B
Sun 03:09:20 PM 39.8830 -118.5010 60° Northeast 507 583 37,000  Level FlightAware ADS-B
Sun 03:09:52 PM 39.9210 -118.4150 60° Northeast 507 583 37,000  Level FlightAware ADS-B
Sun 03:10:28 PM 39.9630 -118.3220 59° Northeast 507 583 37,000  Level FlightAware ADS-B
Sun 03:11:02 PM 40.0030 -118.2300 60° Northeast 507 583 37,000  Level FlightAware ADS-B
Sun 03:11:45 PM 40.0520 -118.1190 60° Northeast 508 585 37,000  Level FlightAware ADS-B
Sun 03:12:20 PM 40.0940 -118.0240 60° Northeast 510 587 37,000  Level FlightAware ADS-B
Sun 03:12:54 PM 40.1340 -117.9330 60° Northeast 510 587 37,000  Level FlightAware ADS-B
Sun 03:13:43 PM 40.1850 -117.8160 60° Northeast 509 586 37,000  Level FlightAware ADS-B
Sun 03:14:17 PM 40.2190 -117.7390 60° Northeast 509 586 37,000  Level FlightAware ADS-B
Sun 03:14:55 PM 40.2570 -117.6530 60° Northeast 509 586 37,000  Level FlightAware ADS-B
Sun 03:15:32 PM 40.2940 -117.5690 60° Northeast 509 586 37,000  Level FlightAware ADS-B
Sun 03:16:08 PM 40.3300 -117.4870 60° Northeast 509 586 37,000  Level FlightAware ADS-B
Sun 03:16:44 PM 40.3660 -117.4050 60° Northeast 509 586 37,000  Level FlightAware ADS-B
Sun 03:17:21 PM 40.4030 -117.3210 60° Northeast 509 586 37,000  Level FlightAware ADS-B
Sun 03:17:57 PM 40.4400 -117.2390 59° Northeast 509 586 37,000  Level FlightAware ADS-B
Sun 03:18:33 PM 40.4760 -117.1570 60° Northeast 509 586 37,000  Level FlightAware ADS-B
Sun 03:19:21 PM 40.5240 -117.0470 60° Northeast 509 586 37,000  Level FlightAware ADS-B
Sun 03:19:55 PM 40.5580 -116.9700 60° Northeast 509 586 37,000  Level FlightAware ADS-B
Sun 03:20:57 PM 40.6200 -116.8280 60° Northeast 509 586 37,000  Level FlightAware ADS-B
Sun 03:21:49 PM 40.6720 -116.7090 60° Northeast 509 586 37,000  Level FlightAware ADS-B
Sun 03:22:36 PM 40.7190 -116.6020 60° Northeast 509 586 37,000  Level FlightAware ADS-B
Sun 03:23:57 PM 40.7886 -116.1080 79° East 507 583 37,000  Level FlightAware ADS-B
Sun 03:24:27 PM 40.8119 -116.0200 71° East 510 587 37,000  Level FlightAware ADS-B
Sun 03:24:59 PM 40.8366 -115.9270 71° East 512 589 37,000  Level FlightAware ADS-B
Sun 03:25:29 PM 40.8601 -115.8370 71° East 515 593 37,000  Level FlightAware ADS-B
Sun 03:27:45 PM 40.9666 -115.4280 71° East 521 600 37,000  Level FlightAware ADS-B
Sun 03:28:16 PM 40.9905 -115.3350 71° East 525 604 37,000  Level FlightAware ADS-B
Sun 03:28:46 PM 41.0138 -115.2450 71° East 525 604 37,000  Level FlightAware ADS-B
Sun 03:29:16 PM 41.0374 -115.1520 71° East 526 605 37,000  Level FlightAware ADS-B
Sun 03:29:49 PM 41.0624 -115.0540 71° East 527 606 37,000  Level FlightAware ADS-B
Sun 03:30:20 PM 41.0864 -114.9590 71° East 526 605 37,000  Level FlightAware ADS-B
Sun 03:30:52 PM 41.1111 -114.8610 71° East 527 606 37,000  Level FlightAware ADS-B
Sun 03:31:49 PM 41.1546 -114.6880 71° East 527 606 37,000  Level FlightAware ADS-B
Sun 03:32:19 PM 41.1780 -114.5950 71° East 527 606 37,000  Level FlightAware ADS-B
Sun 03:32:50 PM 41.2013 -114.5010 72° East 527 606 37,000  Level FlightAware ADS-B
Sun 03:33:22 PM 41.2255 -114.4030 72° East 527 606 37,000  Level FlightAware ADS-B
Sun 03:33:52 PM 41.2485 -114.3100 72° East 526 605 37,000  Level FlightAware ADS-B
Sun 03:34:32 PM 41.2785 -114.1880 72° East 526 605 37,000  Level FlightAware ADS-B
Sun 03:35:07 PM 41.3049 -114.0800 72° East 526 605 37,000  Level FlightAware ADS-B
Sun 03:35:37 PM 41.3275 -113.9870 72° East 524 603 37,000  Level FlightAware ADS-B
Sun 03:36:08 PM 41.3501 -113.8920 72° East 522 601 37,000  Level FlightAware ADS-B
Sun 03:36:31 PM 41.3637 -113.8230 75° East 519 597 37,000  Level FlightAware ADS-B
Sun 03:37:02 PM 41.3780 -113.7260 79° East 515 593 37,000  Level FlightAware ADS-B
Sun 03:37:35 PM 41.3916 -113.6220 80° East 514 592 37,000  Level FlightAware ADS-B
Sun 03:38:06 PM 41.4035 -113.5280 80° East 514 592 37,000  Level FlightAware ADS-B
Sun 03:38:36 PM 41.4154 -113.4330 80° East 515 593 37,000  Level FlightAware ADS-B
Sun 03:39:11 PM 41.4293 -113.3220 80° East 515 593 37,000  Level FlightAware ADS-B
Sun 03:39:42 PM 41.4413 -113.2260 81° East 515 593 37,000  Level FlightAware ADS-B
Sun 03:40:14 PM 41.4534 -113.1280 81° East 516 594 37,000  Level FlightAware ADS-B
Sun 03:40:44 PM 41.4651 -113.0330 81° East 515 593 37,000  Level FlightAware ADS-B
Sun 03:41:25 PM 41.4807 -112.9060 81° East 516 594 37,000  Level FlightAware ADS-B
Sun 03:41:57 PM 41.4929 -112.8060 81° East 517 595 37,000  Level FlightAware ADS-B
Sun 03:42:37 PM 41.5081 -112.6790 81° East 516 594 37,000  Level FlightAware ADS-B
Sun 03:43:07 PM 41.5194 -112.5850 81° East 516 594 37,000  Level FlightAware ADS-B
Sun 03:43:37 PM 41.5306 -112.4900 81° East 516 594 37,000  Level FlightAware ADS-B
Sun 03:43:56 PM 41.5374 -112.4300 81° East 516 594 37,000  Level FlightAware ADS-B
Sun 03:44:30 PM 41.5486 -112.3230 82° East 516 594 37,000  Level FlightAware ADS-B
Sun 03:45:01 PM 41.5585 -112.2260 82° East 517 595 37,000  Level FlightAware ADS-B
Sun 03:45:32 PM 41.5684 -112.1300 82° East 517 595 37,000  Level FlightAware ADS-B
Sun 03:46:04 PM 41.5788 -112.0290 82° East 519 597 37,000  Level FlightAware ADS-B
Sun 03:46:42 PM 41.5913 -111.9070 82° East 519 597 37,000  Level FlightAware ADS-B
Sun 03:47:14 PM 41.6015 -111.8070 82° East 521 600 37,000  Level FlightAware ADS-B
Sun 03:47:52 PM 41.6136 -111.6870 82° East 522 601 37,000  Level FlightAware ADS-B
Sun 03:48:26 PM 41.6244 -111.5780 82° East 522 601 37,000  Level FlightAware ADS-B
Sun 03:48:56 PM 41.6339 -111.4820 82° East 523 602 37,000  Level FlightAware ADS-B
Sun 03:49:26 PM 41.6434 -111.3850 83° East 524 603 37,000  Level FlightAware ADS-B
Sun 03:49:56 PM 41.6527 -111.2890 83° East 524 603 37,000  Level FlightAware ADS-B
Sun 03:50:26 PM 41.6620 -111.1920 83° East 524 603 37,000  Level FlightAware ADS-B
Sun 03:50:57 PM 41.6712 -111.0940 83° East 524 603 37,000 581 Level FlightAware ADS-B
Sun 03:51:28 PM 41.6806 -110.9940 83° East 522 601 37,600 968 Climbing FlightAware ADS-B
Sun 03:51:59 PM 41.6898 -110.8950 83° East 524 603 38,000 885 Climbing FlightAware ADS-B
Sun 03:52:29 PM 41.6987 -110.7990 83° East 524 603 38,500 833 Climbing FlightAware ADS-B
Sun 03:53:11 PM 41.7108 -110.6660 83° East 522 601 39,000 234 Climbing FlightAware ADS-B
Sun 03:54:37 PM 41.7333 -110.4089 83° East 518 596 39,000  Level Salt Lake Center
Sun 03:55:40 PM 41.7492 -110.2261 83° East 517 595 39,000  Level Salt Lake Center
Sun 03:56:41 PM 41.7672 -110.0128 83° East 515 593 39,000  Level Salt Lake Center
Sun 03:57:43 PM 41.7831 -109.8308 83° East 513 590 39,000  Level Salt Lake Center
Sun 03:58:46 PM 41.8014 -109.6161 83° East 519 597 39,000  Level Salt Lake Center
Sun 03:59:48 PM 41.8167 -109.4314 84° East 518 596 39,000  Level Salt Lake Center
Sun 04:00:50 PM 41.8342 -109.2133 84° East 522 601 39,000  Level Salt Lake Center
Sun 04:01:52 PM 41.8481 -109.0264 84° East 522 601 39,000  Level Salt Lake Center
Sun 04:02:54 PM 41.8622 -108.8403 84° East 522 601 39,000  Level Salt Lake Center
Sun 04:03:56 PM 41.8778 -108.6217 84° East 525 604 39,000  Level Salt Lake Center
Sun 04:06:00 PM 41.9075 -108.2181 84° East 522 601 39,000  Level Salt Lake Center
Sun 04:07:02 PM 41.9183 -108.0275 86° East 535 616 39,000  Level Salt Lake Center
Sun 04:08:04 PM 41.9328 -107.8083 85° East 530 610 39,000  Level Salt Lake Center
Sun 04:09:06 PM 41.9442 -107.6239 85° East 519 597 39,000  Level Salt Lake Center
Sun 04:14:23 PM 42.0070 -106.5760 85° East 517 595 39,000  Level FlightAware ADS-B
Sun 04:15:00 PM 42.0130 -106.4750 85° East 517 595 39,000  Level FlightAware ADS-B
Sun 04:15:30 PM 42.0180 -106.3600 87° East 519 597 39,000  Level FlightAware ADS-B
Sun 04:16:07 PM 42.0250 -106.2410 85° East 519 597 39,000  Level FlightAware ADS-B
Sun 04:16:43 PM 42.0300 -106.1250 87° East 519 597 39,000  Level FlightAware ADS-B
Sun 04:17:13 PM 42.0350 -106.0270 86° East 521 600 39,000  Level FlightAware ADS-B
Sun 04:17:53 PM 42.0410 -105.9030 86° East 520 598 39,000  Level FlightAware ADS-B
Sun 04:18:49 PM 42.0500 -105.7250 86° East 521 600 39,000  Level FlightAware ADS-B
Sun 04:19:43 PM 42.0580 -105.5630 86° East 521 600 39,000  Level FlightAware ADS-B
Sun 04:21:52 PM 42.0784 -105.1260 86° East 524 603 39,000  Level FlightAware ADS-B
Sun 04:22:22 PM 42.0866 -105.0270 84° East 523 602 39,000  Level FlightAware ADS-B
Sun 04:22:54 PM 42.0954 -104.9270 83° East 525 604 39,000  Level FlightAware ADS-B
Sun 04:23:24 PM 42.1040 -104.8290 83° East 526 605 39,000  Level FlightAware ADS-B
Sun 04:23:54 PM 42.1126 -104.7300 83° East 526 605 39,000  Level FlightAware ADS-B
Sun 04:24:25 PM 42.1212 -104.6310 83° East 523 602 39,000  Level FlightAware ADS-B
Sun 04:24:55 PM 42.1295 -104.5330 83° East 522 601 39,000  Level FlightAware ADS-B
Sun 04:25:27 PM 42.1380 -104.4320 83° East 522 601 39,000  Level FlightAware ADS-B
Sun 04:25:57 PM 42.1462 -104.3330 84° East 523 602 39,000  Level FlightAware ADS-B
Sun 04:26:28 PM 42.1542 -104.2350 84° East 524 603 39,000  Level FlightAware ADS-B
Sun 04:26:58 PM 42.1621 -104.1380 84° East 525 604 39,000  Level FlightAware ADS-B
Sun 04:27:28 PM 42.1699 -104.0400 84° East 524 603 39,000  Level FlightAware ADS-B
Sun 04:27:58 PM 42.1777 -103.9420 84° East 524 603 39,000  Level FlightAware ADS-B
Sun 04:28:28 PM 42.1853 -103.8450 84° East 524 603 39,000  Level FlightAware ADS-B
Sun 04:28:59 PM 42.1930 -103.7460 84° East 523 602 39,000  Level FlightAware ADS-B
Sun 04:29:29 PM 42.2006 -103.6470 84° East 524 603 39,000  Level FlightAware ADS-B
Sun 04:30:00 PM 42.2081 -103.5480 84° East 524 603 39,000  Level FlightAware ADS-B
Sun 04:30:36 PM 42.2168 -103.4320 84° East 524 603 39,000  Level FlightAware ADS-B
Sun 04:31:07 PM 42.2242 -103.3320 84° East 524 603 39,000  Level FlightAware ADS-B
Sun 04:31:38 PM 42.2315 -103.2320 84° East 523 602 39,000  Level FlightAware ADS-B
Sun 04:32:08 PM 42.2387 -103.1320 84° East 522 601 39,000  Level FlightAware ADS-B
Sun 04:32:45 PM 42.2471 -103.0150 84° East 521 600 39,000  Level FlightAware ADS-B
Sun 04:33:15 PM 42.2540 -102.9170 85° East 522 601 39,000  Level FlightAware ADS-B
Sun 04:33:45 PM 42.2608 -102.8180 85° East 521 600 39,000  Level FlightAware ADS-B
Sun 04:34:17 PM 42.2678 -102.7170 85° East 521 600 39,000  Level FlightAware ADS-B
Sun 04:34:53 PM 42.2756 -102.6010 85° East 522 601 39,000  Level FlightAware ADS-B
Sun 04:35:24 PM 42.2823 -102.5010 85° East 522 601 39,000  Level FlightAware ADS-B
Sun 04:35:54 PM 42.2887 -102.4040 85° East 522 601 39,000  Level FlightAware ADS-B
Sun 04:36:40 PM 42.2984 -102.2530 85° East 523 602 39,000  Level FlightAware ADS-B
Sun 04:37:36 PM 42.3097 -102.0740 85° East 522 601 39,000  Level FlightAware ADS-B
Sun 04:38:55 PM 42.3255 -101.8160 85° East 521 600 39,000  Level FlightAware ADS-B
Sun 04:39:42 PM 42.3346 -101.6640 85° East 520 598 39,000  Level FlightAware ADS-B
Sun 04:40:28 PM 42.3419 -101.5381 85° East 517 595 39,000  Level Denver Center
Sun 04:41:30 PM 42.3525 -101.3519 86° East 518 596 39,000  Level Denver Center
Sun 04:42:32 PM 42.3647 -101.1331 86° East 520 598 39,000  Level Denver Center
Sun 04:43:34 PM 42.3744 -100.9497 86° East 514 592 39,000  Level Denver Center
Sun 04:44:36 PM 42.3853 -100.7311 86° East 519 597 39,000  Level Denver Center
Sun 04:45:16 PM 42.3903 -100.6222 86° East 519 597 39,000  Level Minneapolis Center
Sun 04:46:18 PM 42.3997 -100.4275 86° East 519 597 39,000  Level Minneapolis Center
Sun 04:47:20 PM 42.4106 -100.1931 86° East 519 597 39,000  Level Minneapolis Center
Sun 04:48:22 PM 42.4203 -99.9983 86° East 520 598 39,000  Level Minneapolis Center
Sun 04:49:24 PM 42.4283 -99.8017 87° East 520 598 39,000  Level Minneapolis Center
Sun 04:50:26 PM 42.4364 -99.6056 87° East 521 600 39,000  Level Minneapolis Center
Sun 04:51:28 PM 42.4453 -99.4097 86° East 521 600 39,000  Level Minneapolis Center
Sun 04:52:30 PM 42.4519 -99.2119 87° East 523 602 39,000  Level Minneapolis Center
Sun 04:53:32 PM 42.4603 -99.0169 87° East 519 597 39,000  Level Minneapolis Center
Sun 04:54:34 PM 42.4675 -98.7803 88° East 521 600 39,000  Level Minneapolis Center
Sun 05:00:27 PM 42.5210 -97.6650 88° East 525 604 39,000  Level FlightAware ADS-B
Sun 05:01:39 PM 42.5360 -97.3940 86° East 525 604 39,000  Level FlightAware ADS-B
Sun 05:02:14 PM 42.5420 -97.2810 86° East 525 604 39,000  Level FlightAware ADS-B
Sun 05:02:56 PM 42.5500 -97.1350 86° East 525 604 39,000  Level FlightAware ADS-B
Sun 05:03:06 PM 42.5510 -97.1000 88° East 525 604 39,000  Level FlightAware ADS-B
Sun 05:04:06 PM 42.5590 -96.9400 86° East 526 605 39,000  Level FlightAware ADS-B
Sun 05:04:38 PM 42.5660 -96.7980 86° East 527 606 39,000  Level FlightAware ADS-B
Sun 05:05:18 PM 42.5720 -96.6730 86° East 527 606 39,000  Level FlightAware ADS-B
Sun 05:05:50 PM 42.5770 -96.5650 86° East 527 606 39,000  Level FlightAware ADS-B
Sun 05:06:26 PM 42.5830 -96.4410 86° East 526 605 39,000  Level FlightAware ADS-B
Sun 05:07:00 PM 42.5880 -96.3340 86° East 526 605 39,000  Level FlightAware ADS-B
Sun 05:07:36 PM 42.5930 -96.2140 87° East 527 606 39,000  Level FlightAware ADS-B
Sun 05:08:13 PM 42.5980 -96.1070 86° East 527 606 39,000  Level FlightAware ADS-B
Sun 05:08:44 PM 42.6030 -95.9890 87° East 529 609 39,000  Level FlightAware ADS-B
Sun 05:09:20 PM 42.6070 -95.8710 87° East 529 609 39,000  Level FlightAware ADS-B
Sun 05:09:57 PM 42.6120 -95.7500 87° East 530 610 39,000  Level FlightAware ADS-B
Sun 05:10:29 PM 42.6170 -95.6420 86° East 531 611 39,000  Level FlightAware ADS-B
Sun 05:11:02 PM 42.6210 -95.5310 87° East 531 611 39,000  Level FlightAware ADS-B
Sun 05:11:47 PM 42.6260 -95.3960 87° East 531 611 39,000  Level FlightAware ADS-B
Sun 05:12:25 PM 42.6310 -95.2560 87° East 531 611 39,000  Level FlightAware ADS-B
Sun 05:12:58 PM 42.6340 -95.1470 88° East 532 612 39,000  Level FlightAware ADS-B
Sun 05:13:34 PM 42.6380 -95.0230 87° East 532 612 39,000  Level FlightAware ADS-B
Sun 05:14:06 PM 42.6420 -94.9190 87° East 533 613 39,000  Level FlightAware ADS-B
Sun 05:14:40 PM 42.6450 -94.8040 88° East 533 613 39,000  Level FlightAware ADS-B
Sun 05:15:26 PM 42.6500 -94.6530 87° East 533 613 39,000  Level FlightAware ADS-B
Sun 05:16:02 PM 42.6540 -94.5310 87° East 533 613 39,000  Level FlightAware ADS-B
Sun 05:16:34 PM 42.6570 -94.4240 88° East 533 613 39,000  Level FlightAware ADS-B
Sun 05:17:06 PM 42.6590 -94.3180 88° East 534 615 39,000  Level FlightAware ADS-B
Sun 05:17:46 PM 42.6630 -94.1850 88° East 535 616 39,000  Level FlightAware ADS-B
Sun 05:18:18 PM 42.6660 -94.0760 88° East 535 616 39,000  Level FlightAware ADS-B
Sun 05:18:55 PM 42.6690 -93.9550 88° East 535 616 39,000  Level FlightAware ADS-B
Sun 05:19:29 PM 42.6710 -93.8430 89° East 535 616 39,000  Level FlightAware ADS-B
Sun 05:20:23 PM 42.6740 -93.6880 88° East 536 617 39,000  Level FlightAware ADS-B
Sun 05:21:00 PM 42.6780 -93.5350 88° East 536 617 39,000  Level FlightAware ADS-B
Sun 05:21:34 PM 42.6800 -93.4230 89° East 537 618 39,000  Level FlightAware ADS-B
Sun 05:22:10 PM 42.6820 -93.2960 89° East 537 618 39,000  Level FlightAware ADS-B
Sun 05:22:36 PM 42.6840 -93.2110 88° East 538 619 39,000  Level FlightAware ADS-B
Sun 05:23:40 PM 42.6870 -93.0030 89° East 538 619 39,000  Level FlightAware ADS-B
Sun 05:24:14 PM 42.6890 -92.8880 89° East 538 619 39,000  Level FlightAware ADS-B
Sun 05:24:50 PM 42.6900 -92.7650 89° East 539 620 39,000  Level FlightAware ADS-B
Sun 05:25:25 PM 42.6920 -92.6470 89° East 539 620 39,000  Level FlightAware ADS-B
Sun 05:26:00 PM 42.6930 -92.5290 89° East 540 621 39,000  Level FlightAware ADS-B
Sun 05:26:38 PM 42.6950 -92.3980 89° East 541 623 39,000  Level FlightAware ADS-B
Sun 05:27:05 PM 42.6950 -92.3020 90° East 541 623 39,000  Level FlightAware ADS-B
Sun 05:27:46 PM 42.6970 -92.1610 89° East 542 624 39,000  Level FlightAware ADS-B
Sun 05:28:23 PM 42.6970 -92.0370 90° East 542 624 39,000  Level FlightAware ADS-B
Sun 05:28:55 PM 42.6980 -91.9270 89° East 543 625 39,000  Level FlightAware ADS-B
Sun 05:29:32 PM 42.6990 -91.8010 89° East 543 625 39,000  Level FlightAware ADS-B
Sun 05:30:05 PM 42.6990 -91.6910 90° East 543 625 39,000  Level FlightAware ADS-B
Sun 05:30:41 PM 42.7000 -91.5680 89° East 544 626 39,000  Level FlightAware ADS-B
Sun 05:31:15 PM 42.7000 -91.4540 90° East 544 626 39,000  Level FlightAware ADS-B
Sun 05:31:49 PM 42.7000 -91.3390 90° East 544 626 39,000  Level FlightAware ADS-B
Sun 05:32:25 PM 42.7000 -91.2210 90° East 543 625 39,000  Level FlightAware ADS-B
Sun 05:33:02 PM 42.7000 -91.0900 90° East 543 625 39,000  Level FlightAware ADS-B
Sun 05:33:37 PM 42.7000 -90.9690 90° East 543 625 39,000  Level FlightAware ADS-B
Sun 05:34:10 PM 42.6990 -90.8600 91° East 543 625 39,000  Level FlightAware ADS-B
Sun 05:34:45 PM 42.6990 -90.7390 90° East 543 625 39,000  Level FlightAware ADS-B
Sun 05:35:16 PM 42.6980 -90.6360 91° East 542 624 39,000  Level FlightAware ADS-B
Sun 05:35:55 PM 42.6980 -90.5070 90° East 543 625 39,000  Level FlightAware ADS-B
Sun 05:36:32 PM 42.6970 -90.3760 91° East 544 626 39,000  Level FlightAware ADS-B
Sun 05:37:04 PM 42.6960 -90.2660 91° East 544 626 39,000  Level FlightAware ADS-B
Sun 05:37:40 PM 42.6950 -90.1440 91° East 544 626 39,000  Level FlightAware ADS-B
Sun 05:38:15 PM 42.6930 -90.0220 91° East 543 625 39,000  Level FlightAware ADS-B
Sun 05:38:51 PM 42.6920 -89.9010 91° East 544 626 39,000  Level FlightAware ADS-B
Sun 05:39:28 PM 42.6900 -89.7770 91° East 544 626 39,000  Level FlightAware ADS-B
Sun 05:40:01 PM 42.6890 -89.6610 91° East 543 625 39,000  Level FlightAware ADS-B
Sun 05:40:36 PM 42.6870 -89.5450 91° East 543 625 39,000  Level FlightAware ADS-B
Sun 05:41:13 PM 42.6850 -89.4240 91° East 543 625 39,000  Level FlightAware ADS-B
Sun 05:41:43 PM 42.6840 -89.3150 91° East 543 625 39,000  Level FlightAware ADS-B
Sun 05:42:19 PM 42.6810 -89.1920 92° East 543 625 39,000  Level FlightAware ADS-B
Sun 05:42:56 PM 42.6790 -89.0690 91° East 543 625 39,000  Level FlightAware ADS-B
Sun 05:43:33 PM 42.6770 -88.9430 91° East 543 625 39,000  Level FlightAware ADS-B
Sun 05:44:07 PM 42.6740 -88.8290 92° East 544 626 39,000  Level FlightAware ADS-B
Sun 05:44:42 PM 42.6720 -88.7100 91° East 544 626 39,000  Level FlightAware ADS-B
Sun 05:45:15 PM 42.6690 -88.5960 92° East 544 626 39,000  Level FlightAware ADS-B
Sun 05:45:51 PM 42.6660 -88.4720 92° East 545 627 39,000  Level FlightAware ADS-B
Sun 05:46:28 PM 42.6630 -88.3470 92° East 546 628 39,000  Level FlightAware ADS-B
Sun 05:46:57 PM 42.6600 -88.2500 92° East 546 628 39,000  Level FlightAware ADS-B
Sun 05:47:31 PM 42.6570 -88.1310 92° East 546 628 39,000  Level FlightAware ADS-B
Sun 05:48:06 PM 42.6540 -88.0140 92° East 546 628 39,000  Level FlightAware ADS-B
Sun 05:48:37 PM 42.6510 -87.9300 93° East 546 628 39,000  Level FlightAware ADS-B
Sun 05:49:10 PM 42.6490 -87.8370 92° East 546 628 39,000  Level FlightAware ADS-B
Sun 05:49:49 PM 42.6440 -87.6910 93° East 547 629 39,000  Level FlightAware ADS-B
Sun 05:50:21 PM 42.6410 -87.5940 92° East 548 631 39,000  Level FlightAware ADS-B
Sun 05:51:01 PM 42.6350 -87.4080 92° East 548 631 39,000  Level FlightAware ADS-B
Sun 05:51:35 PM 42.6310 -87.2940 93° East 548 631 39,000  Level FlightAware ADS-B
Sun 05:52:12 PM 42.6270 -87.1720 93° East 549 632 39,000  Level FlightAware ADS-B
Sun 05:52:44 PM 42.6230 -87.0620 93° East 550 633 39,000  Level FlightAware ADS-B
Sun 05:53:15 PM 42.6190 -86.9570 93° East 550 633 39,000  Level FlightAware ADS-B
Sun 05:53:55 PM 42.6140 -86.8180 93° East 550 633 39,000  Level FlightAware ADS-B
Sun 05:54:31 PM 42.6090 -86.6920 93° East 550 633 39,000  Level FlightAware ADS-B
Sun 05:55:03 PM 42.6040 -86.5820 93° East 550 633 39,000  Level FlightAware ADS-B
Sun 05:55:42 PM 42.5990 -86.4460 93° East 549 632 39,000  Level FlightAware ADS-B
Sun 05:56:13 PM 42.5940 -86.3380 94° East 549 632 39,000  Level FlightAware ADS-B
Sun 05:56:49 PM 42.5890 -86.2130 93° East 549 632 39,000  Level FlightAware ADS-B
Sun 05:57:25 PM 42.5830 -86.0920 94° East 549 632 39,000  Level FlightAware ADS-B
Sun 05:57:57 PM 42.5780 -85.9820 93° East 549 632 39,000  Level FlightAware ADS-B
Sun 05:58:35 PM 42.5720 -85.8510 94° East 548 631 39,000  Level FlightAware ADS-B
Sun 05:59:09 PM 42.5660 -85.7370 94° East 547 629 39,000  Level FlightAware ADS-B
Sun 05:59:47 PM 42.5600 -85.6060 94° East 546 628 39,000  Level FlightAware ADS-B
Sun 06:00:27 PM 42.5530 -85.4670 94° East 545 627 39,000  Level FlightAware ADS-B
Sun 06:01:00 PM 42.5470 -85.3550 94° East 546 628 39,000  Level FlightAware ADS-B
Sun 06:01:37 PM 42.5410 -85.2310 94° East 546 628 39,000  Level FlightAware ADS-B
Sun 06:02:14 PM 42.5340 -85.1090 94° East 546 628 39,000  Level FlightAware ADS-B
Sun 06:02:47 PM 42.5280 -84.9960 94° East 546 628 39,000  Level FlightAware ADS-B
Sun 06:03:21 PM 42.5220 -84.8770 94° East 546 628 39,000  Level FlightAware ADS-B
Sun 06:03:55 PM 42.5150 -84.7610 95° East 547 629 39,000  Level FlightAware ADS-B
Sun 06:04:32 PM 42.5080 -84.6370 94° East 547 629 39,000  Level FlightAware ADS-B
Sun 06:05:00 PM 42.5020 -84.5410 95° East 547 629 39,000  Level FlightAware ADS-B
Sun 06:05:44 PM 42.4930 -84.3910 95° East 547 629 39,000  Level FlightAware ADS-B
Sun 06:06:11 PM 42.4880 -84.3020 94° East 547 629 39,000  Level FlightAware ADS-B
Sun 06:06:49 PM 42.4800 -84.1740 95° East 547 629 39,000  Level FlightAware ADS-B
Sun 06:07:29 PM 42.4710 -84.0280 95° East 548 631 39,000  Level FlightAware ADS-B
Sun 06:08:02 PM 42.4640 -83.9180 95° East 548 631 39,000  Level FlightAware ADS-B
Sun 06:08:37 PM 42.4560 -83.7980 95° East 548 631 39,000  Level FlightAware ADS-B
Sun 06:09:11 PM 42.4480 -83.6800 95° East 548 631 39,000  Level FlightAware ADS-B
Sun 06:09:46 PM 42.4410 -83.5650 95° East 548 631 39,000  Level FlightAware ADS-B
Sun 06:10:23 PM 42.4320 -83.4370 95° East 548 631 39,000  Level FlightAware ADS-B
Sun 06:11:03 PM 42.4220 -83.3020 96° East 548 631 39,000  Level FlightAware ADS-B
Sun 06:11:40 PM 42.4140 -83.1820 95° East 547 629 39,000  Level FlightAware ADS-B
Sun 06:12:11 PM 42.4060 -83.0730 96° East 546 628 39,000  Level FlightAware ADS-B
Sun 06:12:49 PM 42.3970 -82.9410 95° East 546 628 39,000  Level FlightAware ADS-B
Sun 06:13:19 PM 42.3890 -82.8410 96° East 545 627 39,000  Level FlightAware ADS-B
Sun 06:14:01 PM 42.3790 -82.7000 95° East 543 625 39,000  Level FlightAware ADS-B
Sun 06:14:33 PM 42.3730 -82.5940 94° East 537 618 39,000  Level FlightAware ADS-B
Sun 06:15:17 PM 42.3690 -82.4420 92° East 534 615 39,000  Level FlightAware ADS-B
Sun 06:15:53 PM 42.3650 -82.3250 93° East 533 613 39,000  Level FlightAware ADS-B
Sun 06:16:25 PM 42.3600 -82.2150 93° East 533 613 39,000  Level FlightAware ADS-B
Sun 06:17:02 PM 42.3560 -82.1070 93° East 533 613 39,000  Level FlightAware ADS-B
Sun 06:17:38 PM 42.3500 -81.9810 94° East 532 612 39,000  Level FlightAware ADS-B
Sun 06:18:10 PM 42.3450 -81.8670 93° East 532 612 39,000  Level FlightAware ADS-B
Sun 06:18:48 PM 42.3390 -81.7440 94° East 531 611 39,000  Level FlightAware ADS-B
Sun 06:19:18 PM 42.3340 -81.6450 94° East 530 610 39,000  Level FlightAware ADS-B
Sun 06:20:34 PM 42.3290 -81.5370 94° East 529 609 39,000  Level FlightAware ADS-B
Sun 06:21:18 PM 42.3150 -81.2540 94° East 523 602 39,000  Level FlightAware ADS-B
Sun 06:21:56 PM 42.3090 -81.1300 94° East 519 597 39,000  Level FlightAware ADS-B
Sun 06:22:26 PM 42.3040 -81.0360 94° East 516 594 39,000  Level FlightAware ADS-B
Sun 06:23:46 PM 42.2920 -80.7970 94° East 514 592 39,000  Level FlightAware ADS-B
Sun 06:24:20 PM 42.2850 -80.6760 94° East 512 589 39,000  Level FlightAware ADS-B
Sun 06:24:58 PM 42.2780 -80.5520 94° East 512 589 39,000  Level FlightAware ADS-B
Sun 06:25:33 PM 42.2720 -80.4440 94° East 513 590 39,000  Level FlightAware ADS-B
Sun 06:26:13 PM 42.2650 -80.3240 94° East 513 590 39,000  Level FlightAware ADS-B
Sun 06:26:48 PM 42.2580 -80.2050 95° East 513 590 39,000  Level FlightAware ADS-B
Sun 06:27:23 PM 42.2520 -80.0970 94° East 514 592 39,000  Level FlightAware ADS-B
Sun 06:27:58 PM 42.2450 -79.9810 95° East 514 592 39,000  Level FlightAware ADS-B
Sun 06:28:33 PM 42.2380 -79.8670 95° East 516 594 39,000  Level FlightAware ADS-B
Sun 06:29:08 PM 42.2310 -79.7540 95° East 517 595 39,000  Level FlightAware ADS-B
Sun 06:29:43 PM 42.2230 -79.6420 95° East 518 596 39,000  Level FlightAware ADS-B
Sun 06:30:18 PM 42.2160 -79.5300 95° East 519 597 39,000  Level FlightAware ADS-B
Sun 06:30:48 PM 42.2100 -79.4350 95° East 521 600 39,000  Level FlightAware ADS-B
Sun 06:31:28 PM 42.2010 -79.3070 95° East 523 602 39,000  Level FlightAware ADS-B
Sun 06:32:03 PM 42.1940 -79.1960 95° East 525 604 39,000  Level FlightAware ADS-B
Sun 06:32:38 PM 42.1770 -79.0780 101° East 532 612 39,000  Level FlightAware ADS-B
Sun 06:33:13 PM 42.1500 -78.9680 108° East 535 616 39,000  Level FlightAware ADS-B
Sun 06:33:57 PM 42.1150 -78.8250 108° East 535 616 39,000  Level FlightAware ADS-B
Sun 06:34:31 PM 42.0880 -78.7170 109° East 533 613 39,000  Level FlightAware ADS-B
Sun 06:35:07 PM 42.0590 -78.6030 109° East 532 612 39,000  Level FlightAware ADS-B
Sun 06:35:43 PM 42.0310 -78.4940 109° East 530 610 39,000  Level FlightAware ADS-B
Sun 06:36:17 PM 42.0030 -78.3860 109° East 529 609 39,000  Level FlightAware ADS-B
Sun 06:36:47 PM 41.9790 -78.2910 109° East 528 608 39,000  Level FlightAware ADS-B
Sun 06:37:33 PM 41.9420 -78.1490 109° East 529 609 39,000  Level FlightAware ADS-B
Sun 06:38:10 PM 41.9140 -78.0400 109° East 528 608 39,000  Level FlightAware ADS-B
Sun 06:38:43 PM 41.8870 -77.9370 109° East 526 605 39,000  Level FlightAware ADS-B
Sun 06:39:17 PM 41.8590 -77.8300 109° East 526 605 39,000  Level FlightAware ADS-B
Sun 06:39:53 PM 41.8310 -77.7220 109° East 526 605 39,000  Level FlightAware ADS-B
Sun 06:39:59 PM 41.8250 -77.7010 111° Southeast 525 604 39,000  Level FlightAware ADS-B
Sun 06:42:19 PM 41.7200 -77.3050 109° East 526 605 39,000  Level FlightAware ADS-B
Sun 06:42:49 PM 41.6870 -77.1840 110° East 526 605 39,000  Level FlightAware ADS-B
Sun 06:43:29 PM 41.6550 -77.0630 109° East 525 604 39,000  Level FlightAware ADS-B
Sun 06:44:00 PM 41.6290 -76.9680 110° East 525 604 39,000  Level FlightAware ADS-B
Sun 06:44:19 PM 41.6124 -76.9062 110° East 525 604 39,000  Level FlightAware ADS-B
Sun 06:44:52 PM 41.5853 -76.8069 110° East 524 603 39,000 -71 Level FlightAware ADS-B
Sun 06:45:43 PM 41.5426 -76.6515 110° East 523 602 38,900 -444 Descending FlightAware ADS-B
Sun 06:46:13 PM 41.5173 -76.5601 110° East 523 602 38,400 -952 Descending FlightAware ADS-B
Sun 06:46:46 PM 41.4900 -76.4610 110° East 523 602 37,900 -985 Descending FlightAware ADS-B
Sun 06:47:20 PM 41.4616 -76.3590 110° East 524 603 37,300 -1,091 Descending FlightAware ADS-B
Sun 06:47:52 PM 41.4348 -76.2627 110° East 523 602 36,700 -1,355 Descending FlightAware ADS-B
Sun 06:48:22 PM 41.4091 -76.1710 110° East 524 603 35,900 -1,839 Descending FlightAware ADS-B
Sun 06:48:54 PM 41.3823 -76.0754 110° East 520 598 34,800 -2,382 Descending FlightAware ADS-B
Sun 06:49:30 PM 41.3524 -75.9694 111° Southeast 519 597 33,200 -3,182 Descending FlightAware ADS-B
Sun 06:50:00 PM 41.3264 -75.8771 111° Southeast 520 598 31,300 -3,774 Descending FlightAware ADS-B
Sun 06:50:32 PM 41.2997 -75.7830 111° Southeast 518 596 29,300 -3,138 Descending FlightAware ADS-B
Sun 06:51:05 PM 41.2708 -75.6855 111° Southeast 506 582 27,900 -2,382 Descending FlightAware ADS-B
Sun 06:51:40 PM 41.2389 -75.5869 113° Southeast 496 571 26,600 -2,294 Descending FlightAware ADS-B
Sun 06:52:13 PM 41.2084 -75.4960 114° Southeast 485 558 25,300 -2,250 Descending FlightAware ADS-B
Sun 06:52:44 PM 41.1814 -75.4155 114° Southeast 476 548 24,200 -2,066 Descending FlightAware ADS-B
Sun 06:53:14 PM 41.1546 -75.3357 114° Southeast 469 540 23,200 -1,180 Descending FlightAware ADS-B
Sun 06:53:45 PM 41.1272 -75.2548 114° Southeast 469 540 23,000 -188 Descending FlightAware ADS-B
Sun 06:54:18 PM 41.0978 -75.1680 114° Southeast 470 541 23,000  Level FlightAware ADS-B
Sun 06:54:49 PM 41.0699 -75.0855 114° Southeast 471 542 23,000  Level FlightAware ADS-B
Sun 06:55:20 PM 41.0422 -75.0042 114° Southeast 466 536 23,000  Level FlightAware ADS-B
Sun 06:55:51 PM 41.0149 -74.9244 114° Southeast 461 531 23,000 -143 Level FlightAware ADS-B
Sun 06:56:02 PM 41.0069 -74.8979 112° Southeast 460 529 22,900 -1,200 Descending FlightAware ADS-B
Sun 06:56:26 PM 40.9927 -74.8317 106° East 456 525 22,300 -1,309 Descending FlightAware ADS-B
Sun 06:56:57 PM 40.9822 -74.7486 99° East 449 517 21,700 -1,200 Descending FlightAware ADS-B
Sun 06:57:06 PM 40.9785 -74.7228 101° East 448 516 21,500 -1,800 Descending FlightAware ADS-B
Sun 06:57:37 PM 40.9595 -74.6426 107° East 443 510 20,500 -2,031 Descending FlightAware ADS-B
Sun 06:58:11 PM 40.9381 -74.5576 108° East 435 501 19,300 -1,343 Descending FlightAware ADS-B
Sun 06:58:44 PM 40.9187 -74.4739 107° East 431 496 19,000 -277 Descending FlightAware ADS-B
Sun 06:59:16 PM 40.9009 -74.3932 106° East 430 495 19,000  Level FlightAware ADS-B
Sun 06:59:47 PM 40.8844 -74.3168 106° East 408 470 19,000  Level FlightAware ADS-B
Sun 07:00:18 PM 40.8693 -74.2475 106° East 373 429 19,000  Level FlightAware ADS-B
Sun 07:00:48 PM 40.8549 -74.1822 106° East 366 421 19,000  Level FlightAware ADS-B
Sun 07:01:19 PM 40.8402 -74.1160 106° East 365 420 19,000 -774 Level FlightAware ADS-B
Sun 07:01:50 PM 40.8254 -74.0506 107° East 358 412 18,200 -2,190 Descending FlightAware ADS-B
Sun 07:02:22 PM 40.8104 -73.9846 107° East 352 405 16,700 -2,710 Descending FlightAware ADS-B
Sun 07:02:52 PM 40.7962 -73.9229 107° East 345 397 15,400 -2,571 Descending FlightAware ADS-B
Sun 07:03:32 PM 40.7781 -73.8445 107° East 335 386 13,700 -1,816 Descending FlightAware ADS-B
Sun 07:04:08 PM 40.7603 -73.7751 109° East 334 384 13,100 -568 Descending FlightAware ADS-B
Sun 07:04:46 PM 40.7412 -73.7021 109° East 333 383 13,000 -79 Descending FlightAware ADS-B
Sun 07:05:24 PM 40.7097 -73.6376 123° Southeast 333 383 13,000 -269 Level FlightAware ADS-B
Sun 07:05:53 PM 40.6819 -73.5895 127° Southeast 335 386 12,700 -1,406 Descending FlightAware ADS-B
Sun 07:06:28 PM 40.6496 -73.5342 128° Southeast 323 372 11,500 -2,262 Descending FlightAware ADS-B
Sun 07:06:54 PM 40.6246 -73.4960 131° Southeast 318 366 10,400 -2,308 Descending FlightAware ADS-B
Sun 07:07:07 PM 40.6079 -73.4846 153° Southeast 310 357 10,000 -1,826 Descending FlightAware ADS-B
Sun 07:07:17 PM 40.5943 -73.4816 170° South 305 351 9,700 -2,308 Descending FlightAware ADS-B
Sun 07:07:20 PM 40.5900 -73.4817 181° South 302 348 9,500 -2,400 Descending FlightAware ADS-B
Sun 07:07:27 PM 40.5807 -73.4836 189° South 297 342 9,300 -1,800 Descending FlightAware ADS-B
Sun 07:07:30 PM 40.5765 -73.4852 196° South 294 338 9,200 -2,000 Descending FlightAware ADS-B
Sun 07:07:33 PM 40.5722 -73.4872 199° South 293 337 9,100 -2,100 Descending FlightAware ADS-B
Sun 07:07:50 PM 40.5522 -73.4980 202° Southwest 288 331 8,500 -2,250 Descending FlightAware ADS-B
Sun 07:08:05 PM 40.5338 -73.5082 203° Southwest 286 329 7,900 -2,400 Descending FlightAware ADS-B
Sun 07:08:20 PM 40.5150 -73.5188 203° Southwest 285 328 7,300 -2,200 Descending FlightAware ADS-B
Sun 07:08:35 PM 40.4968 -73.5289 203° Southwest 279 321 6,800 -2,129 Descending FlightAware ADS-B
Sun 07:08:51 PM 40.4778 -73.5392 202° Southwest 277 319 6,200 -2,308 Descending FlightAware ADS-B
Sun 07:09:14 PM 40.4517 -73.5536 203° Southwest 275 316 5,300 -1,889 Descending FlightAware ADS-B
Sun 07:09:45 PM 40.4170 -73.5730 203° Southwest 273 314 4,500 -1,385 Descending FlightAware ADS-B
Sun 07:10:06 PM 40.3960 -73.5980 222° Southwest 261 300 4,100 -1,034 Descending FlightAware ADS-B
Sun 07:10:14 PM 40.3930 -73.6080 249° West 259 298 4,000 -1,034 Descending FlightAware ADS-B
Sun 07:10:35 PM 40.3860 -73.6390 253° West 252 290 3,600 -1,463 Descending FlightAware ADS-B
Sun 07:10:55 PM 40.3800 -73.6670 254° West 250 288 3,000 -1,909 Descending FlightAware ADS-B
Sun 07:11:19 PM 40.3710 -73.7030 252° West 253 291 2,200 -1,350 Descending FlightAware ADS-B
Sun 07:11:35 PM 40.3660 -73.7260 254° West 251 289 2,100 -316 Descending FlightAware ADS-B
Sun 07:11:57 PM 40.3590 -73.7570 254° West 248 285 2,000 -154 Descending FlightAware ADS-B
Sun 07:12:14 PM 40.3550 -73.7830 259° West 245 282 2,000 162 Level FlightAware ADS-B
Sun 07:12:34 PM 40.3600 -73.8090 284° West 242 278 2,100  Climbing FlightAware ADS-B
Sun 07:12:53 PM 40.3700 -73.8340 298° West 241 277 2,000 -150 Descending FlightAware ADS-B
Sun 07:13:14 PM 40.3810 -73.8630 296° West 240 276 2,000  Level FlightAware ADS-B
Sun 07:13:34 PM 40.3910 -73.8870 299° West 239 275 2,000  Level FlightAware ADS-B
Sun 07:13:42 PM 40.3980 -73.8960 316° Northwest 240 276 2,000  Level FlightAware ADS-B
Sun 07:13:50 PM 40.4050 -73.9010 331° Northwest 242 278 2,000 375 Level FlightAware ADS-B
Sun 07:13:58 PM 40.4140 -73.9030 350° North 245 282 2,100 300 Climbing FlightAware ADS-B
Sun 07:14:10 PM 40.4280 -73.9040 357° North 248 285 2,100 -167 Level FlightAware ADS-B
Sun 07:14:34 PM 40.4550 -73.9000 North 247 284 2,000 -136 Descending FlightAware ADS-B
Sun 07:14:54 PM 40.4750 -73.8870 26° Northeast 217 250 2,000  Level FlightAware ADS-B
Sun 07:15:14 PM 40.4920 -73.8750 28° Northeast 194 223 2,000 146 Level FlightAware ADS-B
Sun 07:15:35 PM 40.5050 -73.8640 33° Northeast 184 212 2,100  Climbing FlightAware ADS-B
Sun 07:15:48 PM 40.5150 -73.8560 31° Northeast 181 208 2,000 -167 Descending FlightAware ADS-B
Sun 07:16:11 PM 40.5330 -73.8420 31° Northeast 187 215 2,000 -154 Level FlightAware ADS-B
Sun 07:16:27 PM 40.5450 -73.8330 30° Northeast 191 220 1,900 -882 Descending FlightAware ADS-B
Sun 07:16:45 PM 40.5590 -73.8220 31° Northeast 185 213 1,500 -1,034 Descending FlightAware ADS-B
Sun 07:16:56 PM 40.5670 -73.8160 30° Northeast 175 201 1,400 -833 Descending FlightAware ADS-B
Sun 07:17:21 PM 40.5830 -73.8030 32° Northeast 153 176 1,000 -800 Descending FlightAware ADS-B
Sun 07:17:41 PM 40.5950 -73.7940 30° Northeast 134 154 800 -600 Descending FlightAware ADS-B
Sun 07:18:01 PM 40.6040 -73.7870 31° Northeast 126 145 600 -750 Descending FlightAware ADS-B
Sun 07:18:13 PM 40.6110 -73.7820 28° Northeast 120 138 400 -667 Descending FlightAware ADS-B
Sun 07:18:37 PM 40.6220 -73.7730 32° Northeast 123 142 200 -500 Descending FlightAware ADS-B
Sun 07:18:57 PM 40.6320 -73.7650 31° Northeast 115 132 -600 Descending FlightAware ADS-B

Login

Don't have an account? Register now (free) for customized features, flight alerts, and more!